Time,TemperatureF,DewpointF,PressureIn,WindDirection,WindDirectionDegrees,WindSpeedMPH,WindSpeedGustMPH,Humidity,HourlyPrecipIn,Conditions,Clouds,dailyrainin,SolarRadiationWatts/m^2,SoftwareType,DateUTC
2013-08-14 00:01:00,55.0,53.0,-100.00,NNW,338,0.0,2.0,93,0.00,,,0.00,0.000000,,2013-08-14 07:01:00,
2013-08-14 00:11:00,55.0,53.0,-100.00,NNW,338,0.0,2.0,93,0.00,,,0.00,0.000000,,2013-08-14 07:11:00,
2013-08-14 00:21:00,55.0,53.0,-100.00,NNW,338,0.0,2.0,93,0.00,,,0.00,0.000000,,2013-08-14 07:21:00,
2013-08-14 00:31:00,55.0,53.0,-100.00,NNW,338,0.0,2.0,93,0.00,,,0.00,0.000000,,2013-08-14 07:31:00,
2013-08-14 00:52:00,54.0,52.0,-100.00,NNW,327,0.0,2.0,94,0.00,,,0.00,0.000000,,2013-08-14 07:52:00,
2013-08-14 01:01:00,54.0,52.0,-100.00,NNW,327,0.0,2.0,94,0.00,,,0.00,0.000000,,2013-08-14 08:01:00,
2013-08-14 01:11:00,54.0,52.0,-100.00,NNW,327,0.0,2.0,94,0.00,,,0.00,0.000000,,2013-08-14 08:11:00,
2013-08-14 01:21:00,54.0,52.0,-100.00,NNW,327,0.0,2.0,94,0.00,,,0.00,0.000000,,2013-08-14 08:21:00,
2013-08-14 01:31:00,54.0,52.0,-100.00,NNW,327,0.0,2.0,94,0.00,,,0.00,0.000000,,2013-08-14 08:31:00,
2013-08-14 01:33:00,53.0,52.0,-100.00,North,0,0.0,1.0,96,0.00,,,0.00,0.000000,,2013-08-14 08:33:00,
2013-08-14 01:52:00,53.0,52.0,-100.00,North,0,0.0,1.0,96,0.00,,,0.00,0.000000,,2013-08-14 08:52:00,
2013-08-14 02:02:00,53.0,52.0,-100.00,North,0,0.0,1.0,96,0.00,,,0.00,0.000000,,2013-08-14 09:02:00,
2013-08-14 02:11:00,53.0,52.0,-100.00,North,0,0.0,1.0,96,0.00,,,0.00,0.000000,,2013-08-14 09:11:00,
2013-08-14 02:21:00,53.0,52.0,-100.00,North,0,0.0,1.0,96,0.00,,,0.00,0.000000,,2013-08-14 09:21:00,
2013-08-14 02:53:00,52.0,51.0,-100.00,North,9,0.0,1.0,97,0.00,,,0.00,0.000000,,2013-08-14 09:53:00,
2013-08-14 03:03:00,52.0,51.0,-100.00,North,9,0.0,1.0,97,0.00,,,0.00,0.000000,,2013-08-14 10:03:00,
2013-08-14 03:11:00,52.0,51.0,-100.00,North,9,0.0,1.0,97,0.00,,,0.00,0.000000,,2013-08-14 10:11:00,
2013-08-14 03:22:00,52.0,51.0,-100.00,North,9,0.0,1.0,97,0.00,,,0.00,0.000000,,2013-08-14 10:22:00,
2013-08-14 03:32:00,52.0,51.0,-100.00,North,9,0.0,1.0,97,0.00,,,0.00,0.000000,,2013-08-14 10:32:00,
2013-08-14 03:52:00,52.0,51.0,-100.00,NNE,23,0.0,2.0,97,0.00,,,-99.99,0.000000,,2013-08-14 10:52:00,
2013-08-14 04:02:00,52.0,51.0,-100.00,NNE,23,0.0,2.0,97,0.00,,,-99.99,0.000000,,2013-08-14 11:02:00,
2013-08-14 04:11:00,52.0,51.0,-100.00,NNE,23,0.0,2.0,97,0.00,,,-99.99,0.000000,,2013-08-14 11:11:00,
2013-08-14 04:21:00,52.0,51.0,-100.00,NNE,23,0.0,2.0,97,0.00,,,-99.99,0.000000,,2013-08-14 11:21:00,
2013-08-14 04:32:00,52.0,51.0,-100.00,NNE,23,0.0,2.0,97,0.00,,,-99.99,0.000000,,2013-08-14 11:32:00,
2013-08-14 04:52:00,53.0,52.0,-100.00,SSE,151,0.0,3.0,96,0.00,,,0.00,0.000000,,2013-08-14 11:52:00,
2013-08-14 05:01:00,53.0,52.0,-100.00,SSE,151,0.0,3.0,96,0.00,,,0.00,0.000000,,2013-08-14 12:01:00,
2013-08-14 05:11:00,53.0,52.0,-100.00,SSE,151,0.0,3.0,96,0.00,,,0.00,0.000000,,2013-08-14 12:11:00,
2013-08-14 05:21:00,53.0,52.0,-100.00,SSE,151,0.0,3.0,96,0.00,,,0.00,0.000000,,2013-08-14 12:21:00,
2013-08-14 05:31:00,53.0,52.0,-100.00,SSE,151,0.0,3.0,96,0.00,,,0.00,0.000000,,2013-08-14 12:31:00,
2013-08-14 06:11:00,52.0,51.0,-100.00,ENE,63,0.0,2.0,97,0.00,,,0.00,0.000000,,2013-08-14 13:11:00,
2013-08-14 06:21:00,52.0,51.0,-100.00,ENE,63,0.0,2.0,97,0.00,,,0.00,0.000000,,2013-08-14 13:21:00,
2013-08-14 06:31:00,52.0,51.0,-100.00,ENE,63,0.0,2.0,97,0.00,,,0.00,0.000000,,2013-08-14 13:31:00,
2013-08-14 06:52:00,53.0,52.0,-100.00,West,277,0.0,2.0,96,0.00,,,0.00,2.000000,,2013-08-14 13:52:00,
2013-08-14 07:01:00,53.0,52.0,-100.00,West,277,0.0,2.0,96,0.00,,,0.00,2.000000,,2013-08-14 14:01:00,
2013-08-14 07:11:00,53.0,52.0,-100.00,West,277,0.0,2.0,96,0.00,,,0.00,2.000000,,2013-08-14 14:11:00,
2013-08-14 07:21:00,53.0,52.0,-100.00,West,277,0.0,2.0,96,0.00,,,0.00,2.000000,,2013-08-14 14:21:00,
2013-08-14 07:32:00,53.0,52.0,-100.00,West,277,0.0,2.0,96,0.00,,,0.00,2.000000,,2013-08-14 14:32:00,
2013-08-14 07:33:00,55.0,53.0,-100.00,North,358,0.0,3.0,94,0.00,,,0.00,25.000000,,2013-08-14 14:33:00,
2013-08-14 07:52:00,55.0,53.0,-100.00,North,358,0.0,3.0,94,0.00,,,0.00,25.000000,,2013-08-14 14:52:00,
2013-08-14 08:02:00,55.0,53.0,-100.00,North,358,0.0,3.0,94,0.00,,,0.00,25.000000,,2013-08-14 15:02:00,
2013-08-14 08:11:00,55.0,53.0,-100.00,North,358,0.0,3.0,94,0.00,,,0.00,25.000000,,2013-08-14 15:11:00,
2013-08-14 08:22:00,55.0,53.0,-100.00,North,358,0.0,3.0,94,0.00,,,0.00,25.000000,,2013-08-14 15:22:00,
2013-08-14 08:33:00,58.0,55.0,-100.00,NNW,328,0.0,3.0,91,0.00,,,-99.99,60.000000,,2013-08-14 15:33:00,
2013-08-14 09:13:00,58.0,55.0,-100.00,NNW,328,0.0,3.0,91,0.00,,,-99.99,60.000000,,2013-08-14 16:13:00,
2013-08-14 09:33:00,60.0,55.0,-100.00,North,360,1.0,3.0,85,0.00,,,-99.99,108.000000,,2013-08-14 16:33:00,
2013-08-14 10:04:00,60.0,55.0,-100.00,North,360,1.0,3.0,85,0.00,,,-99.99,108.000000,,2013-08-14 17:04:00,
2013-08-14 10:20:00,60.0,55.0,-100.00,North,360,1.0,3.0,85,0.00,,,-99.99,108.000000,,2013-08-14 17:20:00,
2013-08-14 10:28:00,60.0,55.0,-100.00,North,360,1.0,3.0,85,0.00,,,-99.99,108.000000,,2013-08-14 17:28:00,
2013-08-14 10:33:00,65.0,56.0,-100.00,NW,322,1.0,5.0,74,0.00,,,0.00,224.000000,,2013-08-14 17:33:00,
2013-08-14 10:55:00,65.0,56.0,-100.00,NW,322,1.0,5.0,74,0.00,,,0.00,224.000000,,2013-08-14 17:55:00,
2013-08-14 11:05:00,65.0,56.0,-100.00,NW,322,1.0,5.0,74,0.00,,,0.00,224.000000,,2013-08-14 18:05:00,
2013-08-14 11:24:00,65.0,-99.9,-100.00,NW,322,1.0,5.0,74,0.00,,,0.00,224.000000,,2013-08-14 18:24:00,
2013-08-14 11:29:00,65.0,56.0,-100.00,NW,322,1.0,5.0,74,0.00,,,0.00,224.000000,,2013-08-14 18:29:00,
2013-08-14 11:33:00,66.0,56.0,-100.00,West,267,1.0,5.0,71,0.00,,,0.00,146.000000,,2013-08-14 18:33:00,
2013-08-14 12:01:00,66.0,56.0,-100.00,West,267,1.0,5.0,71,0.00,,,0.00,146.000000,,2013-08-14 19:01:00,
2013-08-14 12:13:00,66.0,56.0,-100.00,West,267,1.0,5.0,71,0.00,,,0.00,146.000000,,2013-08-14 19:13:00,
2013-08-14 12:56:00,65.0,58.0,-100.00,West,265,2.0,5.0,78,0.00,,,0.00,173.000000,,2013-08-14 19:56:00,
2013-08-14 13:04:00,65.0,58.0,-100.00,West,265,2.0,5.0,78,0.00,,,0.00,173.000000,,2013-08-14 20:04:00,
2013-08-14 13:11:00,65.0,58.0,-100.00,West,265,2.0,5.0,78,0.00,,,0.00,173.000000,,2013-08-14 20:11:00,
2013-08-14 13:33:00,67.0,57.0,-100.00,NW,309,1.0,5.0,71,0.00,,,0.00,278.000000,,2013-08-14 20:33:00,
2013-08-14 13:53:00,67.0,57.0,-100.00,NW,309,1.0,5.0,71,0.00,,,0.00,278.000000,,2013-08-14 20:53:00,
2013-08-14 14:05:00,67.0,57.0,-100.00,NW,309,1.0,5.0,71,0.00,,,0.00,278.000000,,2013-08-14 21:05:00,
2013-08-14 14:13:00,67.0,57.0,-100.00,NW,309,1.0,5.0,71,0.00,,,0.00,278.000000,,2013-08-14 21:13:00,
2013-08-14 14:23:00,67.0,57.0,-100.00,NW,309,1.0,5.0,71,0.00,,,0.00,278.000000,,2013-08-14 21:23:00,
2013-08-14 14:33:00,69.0,59.0,-100.00,West,267,3.0,7.0,70,0.00,,,0.00,308.000000,,2013-08-14 21:33:00,
2013-08-14 15:13:00,69.0,59.0,-100.00,West,267,3.0,7.0,70,0.00,,,0.00,308.000000,,2013-08-14 22:13:00,
2013-08-14 15:23:00,69.0,59.0,-100.00,West,267,3.0,7.0,70,0.00,,,0.00,308.000000,,2013-08-14 22:23:00,
2013-08-14 16:13:00,73.0,55.0,-100.00,South,178,4.0,11.0,53,0.00,,,0.00,348.000000,,2013-08-14 23:13:00,
2013-08-14 16:56:00,68.0,54.0,-100.00,South,175,6.0,16.0,61,-99.99,,,0.00,224.000000,,2013-08-14 23:56:00,
2013-08-14 17:03:00,68.0,54.0,-100.00,South,175,6.0,16.0,61,-99.99,,,0.00,224.000000,,2013-08-15 00:03:00,
2013-08-14 17:12:00,68.0,54.0,-100.00,South,175,6.0,16.0,61,-99.99,,,0.00,224.000000,,2013-08-15 00:12:00,
2013-08-14 17:23:00,68.0,54.0,-100.00,South,175,6.0,16.0,61,-99.99,,,0.00,224.000000,,2013-08-15 00:23:00,
2013-08-14 17:31:00,68.0,54.0,-100.00,South,175,6.0,16.0,61,-99.99,,,0.00,224.000000,,2013-08-15 00:31:00,
2013-08-14 17:52:00,66.0,58.0,-100.00,SSE,163,4.0,12.0,75,-99.99,,,0.00,146.000000,,2013-08-15 00:52:00,
2013-08-14 18:01:00,66.0,58.0,-100.00,SSE,163,4.0,12.0,75,-99.99,,,0.00,146.000000,,2013-08-15 01:01:00,
2013-08-14 18:16:00,66.0,58.0,-100.00,SSE,163,4.0,12.0,75,-99.99,,,0.00,146.000000,,2013-08-15 01:16:00,
2013-08-14 18:22:00,66.0,58.0,-100.00,SSE,163,4.0,12.0,75,-99.99,,,0.00,146.000000,,2013-08-15 01:22:00,
2013-08-14 18:32:00,66.0,58.0,-100.00,SSE,163,4.0,12.0,75,-99.99,,,0.00,146.000000,,2013-08-15 01:32:00,
2013-08-14 18:52:00,65.0,61.0,-100.00,South,183,3.0,9.0,88,0.00,,,0.00,90.000000,,2013-08-15 01:52:00,
2013-08-14 19:01:00,65.0,61.0,-100.00,South,183,3.0,9.0,88,0.00,,,0.00,90.000000,,2013-08-15 02:01:00,
2013-08-14 19:11:00,65.0,61.0,-100.00,South,183,3.0,9.0,88,0.00,,,0.00,90.000000,,2013-08-15 02:11:00,
2013-08-14 19:21:00,65.0,61.0,-100.00,South,183,3.0,9.0,88,0.00,,,0.00,90.000000,,2013-08-15 02:21:00,
2013-08-14 19:31:00,65.0,61.0,-100.00,South,183,3.0,9.0,88,0.00,,,0.00,90.000000,,2013-08-15 02:31:00,
2013-08-14 19:33:00,63.0,61.0,-100.00,SSW,192,2.0,7.0,94,0.01,,,-99.99,63.000000,,2013-08-15 02:33:00,
2013-08-14 20:11:00,63.0,61.0,-100.00,SSW,192,2.0,7.0,94,0.01,,,-99.99,63.000000,,2013-08-15 03:11:00,
2013-08-14 20:22:00,63.0,61.0,-100.00,SSW,192,2.0,7.0,94,0.01,,,-99.99,63.000000,,2013-08-15 03:22:00,
2013-08-14 20:53:00,63.0,61.0,-100.00,South,183,2.0,8.0,94,0.01,,,0.02,36.000000,,2013-08-15 03:53:00,
2013-08-14 21:03:00,63.0,61.0,-100.00,South,183,2.0,8.0,94,0.01,,,0.02,36.000000,,2013-08-15 04:03:00,
2013-08-14 21:12:00,63.0,61.0,-100.00,South,183,2.0,8.0,94,0.01,,,0.02,36.000000,,2013-08-15 04:12:00,
2013-08-14 21:22:00,63.0,61.0,-100.00,South,183,2.0,8.0,94,0.01,,,0.02,36.000000,,2013-08-15 04:22:00,
2013-08-14 21:32:00,63.0,61.0,-100.00,South,183,2.0,8.0,94,0.01,,,0.02,36.000000,,2013-08-15 04:32:00,
2013-08-14 21:52:00,62.0,60.0,-100.00,South,173,1.0,7.0,93,0.00,,,0.02,2.000000,,2013-08-15 04:52:00,
2013-08-14 22:02:00,62.0,60.0,-100.00,South,173,1.0,7.0,93,0.00,,,0.02,2.000000,,2013-08-15 05:02:00,
2013-08-14 22:12:00,62.0,60.0,-100.00,South,173,1.0,7.0,93,0.00,,,0.02,2.000000,,2013-08-15 05:12:00,
2013-08-14 22:22:00,62.0,60.0,-100.00,South,173,1.0,7.0,93,0.00,,,0.02,2.000000,,2013-08-15 05:22:00,
2013-08-14 22:32:00,62.0,60.0,-100.00,South,173,1.0,7.0,93,0.00,,,0.02,2.000000,,2013-08-15 05:32:00,
2013-08-14 22:52:00,61.0,59.0,-100.00,SSW,207,0.0,8.0,94,0.00,,,0.02,0.000000,,2013-08-15 05:52:00,
2013-08-14 23:02:00,61.0,59.0,-100.00,SSW,207,0.0,8.0,94,0.00,,,0.02,0.000000,,2013-08-15 06:02:00,
2013-08-14 23:11:00,61.0,59.0,-100.00,SSW,207,0.0,8.0,94,0.00,,,0.02,0.000000,,2013-08-15 06:11:00,
2013-08-14 23:21:00,61.0,59.0,-100.00,SSW,207,0.0,8.0,94,0.00,,,0.02,0.000000,,2013-08-15 06:21:00,
2013-08-14 23:31:00,61.0,59.0,-100.00,SSW,207,0.0,8.0,94,0.00,,,0.02,0.000000,,2013-08-15 06:31:00,
2013-08-14 23:52:00,61.0,59.0,-100.00,SSW,192,1.0,4.0,93,0.00,,,0.02,0.000000,,2013-08-15 06:52:00,